createdAt,value
2022-09-03T00:02:26.869Z,1.20
2022-09-03T00:04:58.813Z,1.10
2022-09-03T00:07:51.646Z,1.30
2022-09-03T00:10:29.282Z,1.10
2022-09-03T00:13:00.778Z,1.13
2022-09-03T00:15:29.316Z,0.88
2022-09-03T00:18:02.679Z,1.02
2022-09-03T00:20:39.178Z,1.30
2022-09-03T00:23:19.817Z,1.15
2022-09-03T00:26:14.394Z,0.98
2022-09-03T00:29:17.858Z,1.00
2022-09-03T00:31:48.700Z,1.30
2022-09-03T00:34:34.217Z,1.50
2022-09-03T00:37:01.205Z,1.42
2022-09-03T00:39:28.671Z,1.50
2022-09-03T00:42:24.879Z,1.50
2022-09-03T00:45:03.138Z,1.50
2022-09-03T00:48:02.303Z,1.67
2022-09-03T00:51:10.706Z,1.65
2022-09-03T00:53:59.263Z,1.90
2022-09-03T00:57:10.989Z,1.75
2022-09-03T00:59:43.046Z,1.80
2022-09-03T01:05:10.528Z,1.92
2022-09-03T01:08:22.247Z,1.98
2022-09-03T01:11:23.254Z,2.03
2022-09-03T01:14:16.275Z,2.13
2022-09-03T01:17:29.123Z,2.08
2022-09-03T01:20:09.093Z,2.60
2022-09-03T01:22:52.122Z,2.42
2022-09-03T01:25:37.586Z,2.38
2022-09-03T01:28:19.991Z,2.28
2022-09-03T01:31:12.086Z,2.15
2022-09-03T01:33:49.945Z,2.30
2022-09-03T01:36:20.412Z,2.58
2022-09-03T01:39:04.710Z,2.65
2022-09-03T01:42:11.244Z,2.60
2022-09-03T01:45:09.600Z,2.70
2022-09-03T01:47:55.350Z,2.60
2022-09-03T01:50:42.656Z,2.72
2022-09-03T01:53:25.292Z,2.58
2022-09-03T01:56:06.169Z,2.75
2022-09-03T01:59:31.553Z,2.72
2022-09-03T02:02:21.395Z,2.65
2022-09-03T02:05:01.927Z,3.03
2022-09-03T02:07:36.629Z,2.60
2022-09-03T02:10:06.892Z,2.40
2022-09-03T02:12:37.274Z,2.78
2022-09-03T02:15:10.215Z,2.70
2022-09-03T02:17:37.409Z,2.40
2022-09-03T02:20:07.573Z,2.90
2022-09-03T02:22:34.945Z,2.88
2022-09-03T02:25:01.965Z,2.10
2022-09-03T02:27:30.520Z,2.65
2022-09-03T02:29:58.376Z,2.53
2022-09-03T02:32:25.830Z,2.40
2022-09-03T02:34:52.606Z,3.00
2022-09-03T02:37:19.849Z,2.58
2022-09-03T02:39:46.820Z,2.40
2022-09-03T02:42:14.781Z,2.13
2022-09-03T02:45:00.526Z,2.50
2022-09-03T02:47:33.568Z,2.38
2022-09-03T02:50:00.324Z,2.15
2022-09-03T02:52:27.066Z,2.47
2022-09-03T02:54:53.857Z,2.47
2022-09-03T02:57:27.470Z,2.20
2022-09-03T02:59:54.733Z,2.28
2022-09-03T03:02:21.557Z,2.38
2022-09-03T03:04:48.395Z,2.50
2022-09-03T03:07:15.193Z,2.20
2022-09-03T03:09:41.893Z,2.22
2022-09-03T03:12:10.381Z,2.20
2022-09-03T03:14:37.294Z,2.45
2022-09-03T03:17:04.290Z,2.38
2022-09-03T03:19:31.077Z,2.72
2022-09-03T03:21:58.128Z,2.70
2022-09-03T03:24:24.894Z,2.40
2022-09-03T03:26:51.696Z,2.50
2022-09-03T03:29:18.597Z,2.50
2022-09-03T03:31:45.322Z,2.75
2022-09-03T03:34:12.182Z,2.40
2022-09-03T03:36:39.022Z,2.35
2022-09-03T03:39:05.811Z,2.80
2022-09-03T03:41:35.573Z,2.67
2022-09-03T03:44:05.643Z,2.25
2022-09-03T03:46:35.161Z,2.55
2022-09-03T03:49:02.792Z,2.60
2022-09-03T03:51:30.508Z,2.30
2022-09-03T03:54:00.202Z,2.35
2022-09-03T03:56:29.965Z,2.38
2022-09-03T03:58:58.807Z,2.70
2022-09-03T04:01:27.159Z,2.50
2022-09-03T04:03:58.465Z,2.50
2022-09-03T04:06:25.406Z,3.00
2022-09-03T04:08:52.221Z,2.88
2022-09-03T04:11:21.612Z,2.60
2022-09-03T04:13:49.528Z,2.30
2022-09-03T04:16:19.376Z,2.83
2022-09-03T04:18:46.572Z,2.08
2022-09-03T04:21:16.632Z,2.53
2022-09-03T04:23:45.470Z,2.70
2022-09-03T04:26:15.799Z,2.78
2022-09-03T04:28:42.652Z,2.50
2022-09-03T04:31:11.276Z,2.58
2022-09-03T04:33:39.709Z,2.40
2022-09-03T04:36:19.177Z,2.38
2022-09-03T04:38:47.764Z,2.40
2022-09-03T04:41:26.049Z,2.50
2022-09-03T04:43:55.023Z,2.42
2022-09-03T04:46:26.091Z,2.35
2022-09-03T04:48:54.972Z,2.20
2022-09-03T04:51:27.493Z,2.40
2022-09-03T04:53:59.168Z,2.25
2022-09-03T04:56:28.851Z,2.53
2022-09-03T04:59:01.563Z,2.42
2022-09-03T05:01:30.779Z,2.25
2022-09-03T05:03:58.498Z,2.60
2022-09-03T05:06:29.698Z,2.80
2022-09-03T05:08:57.434Z,2.45
2022-09-03T05:11:25.748Z,2.60
2022-09-03T05:13:55.664Z,2.53
2022-09-03T05:16:23.920Z,2.85
2022-09-03T05:18:55.800Z,2.20
2022-09-03T05:21:24.146Z,2.50
2022-09-03T05:23:52.897Z,2.72
2022-09-03T05:26:25.460Z,2.70
2022-09-03T05:28:58.025Z,2.50
2022-09-03T05:31:28.230Z,2.75
2022-09-03T05:33:59.715Z,2.67
2022-09-03T05:36:29.412Z,3.08
2022-09-03T05:38:56.540Z,2.55
2022-09-03T05:41:26.112Z,2.60
2022-09-03T05:43:59.329Z,2.88
2022-09-03T05:46:38.372Z,2.53
2022-09-03T05:49:07.641Z,2.63
2022-09-03T05:51:36.926Z,2.40
2022-09-03T05:54:04.128Z,2.40
2022-09-03T05:56:32.697Z,2.40
2022-09-03T05:59:01.933Z,2.50
2022-09-03T06:01:34.306Z,2.45
2022-09-03T06:04:05.343Z,2.60
2022-09-03T06:06:34.833Z,2.15
2022-09-03T06:09:07.572Z,2.15
2022-09-03T06:11:37.462Z,2.30
2022-09-03T06:14:08.212Z,2.83
2022-09-03T06:16:37.710Z,2.80
2022-09-03T06:19:09.784Z,2.38
2022-09-03T06:21:40.090Z,2.15
2022-09-03T06:24:06.924Z,2.30
2022-09-03T06:26:33.721Z,2.40
2022-09-03T06:29:01.598Z,2.35
2022-09-03T06:31:28.468Z,2.10
2022-09-03T06:33:59.585Z,1.95
2022-09-03T06:36:27.769Z,1.85
2022-09-03T06:38:56.589Z,1.85
2022-09-03T06:41:25.836Z,2.10
2022-09-03T06:44:05.001Z,1.75
2022-09-03T06:49:05.838Z,1.60
2022-09-03T06:51:33.613Z,1.40
2022-09-03T06:54:08.469Z,1.30
2022-09-03T06:56:40.291Z,1.23
2022-09-03T06:59:10.556Z,1.33
2022-09-03T07:01:41.054Z,1.50
2022-09-03T07:04:12.948Z,1.60
2022-09-03T07:06:42.403Z,1.25
2022-09-03T07:09:11.285Z,1.50
2022-09-03T07:11:40.259Z,1.50
2022-09-03T07:14:07.005Z,1.70
2022-09-03T07:16:37.589Z,1.73
2022-09-03T07:19:06.076Z,1.63
2022-09-03T07:21:36.812Z,1.30
2022-09-03T07:24:05.750Z,1.08
2022-09-03T07:26:35.617Z,1.02
2022-09-03T07:29:03.016Z,1.90
2022-09-03T07:31:35.142Z,1.10
2022-09-03T07:34:06.126Z,1.05
2022-09-03T07:36:48.814Z,1.23
2022-09-03T07:39:16.771Z,1.65
2022-09-03T07:41:45.751Z,1.42
2022-09-03T07:44:19.730Z,1.40
2022-09-03T07:46:49.583Z,1.30
2022-09-03T07:49:17.361Z,1.48
2022-09-03T07:51:46.575Z,1.38
2022-09-03T07:54:13.392Z,1.30
2022-09-03T07:56:41.207Z,1.25
2022-09-03T07:59:09.115Z,0.95
2022-09-03T08:01:38.306Z,1.00
2022-09-03T08:06:38.833Z,1.20
2022-09-03T08:09:08.922Z,1.10
2022-09-03T08:11:40.689Z,0.95
2022-09-03T08:14:10.081Z,1.45
2022-09-03T08:16:48.109Z,1.40
2022-09-03T08:19:15.597Z,1.20
2022-09-03T08:21:43.845Z,1.50
2022-09-03T08:24:12.001Z,1.30
2022-09-03T08:26:45.103Z,0.98
2022-09-03T08:29:14.585Z,0.80
2022-09-03T08:31:41.743Z,1.10
2022-09-03T08:34:10.511Z,1.00
2022-09-03T08:36:40.033Z,0.85
2022-09-03T08:39:10.036Z,1.30
2022-09-03T08:42:04.799Z,1.00
2022-09-03T08:44:54.237Z,1.17
2022-09-03T08:47:30.384Z,0.98
2022-09-03T08:50:24.685Z,0.90
2022-09-03T08:52:59.603Z,1.00
2022-09-03T08:55:29.391Z,1.10
2022-09-03T08:58:05.212Z,0.82
2022-09-03T09:00:42.373Z,0.80
2022-09-03T09:03:20.914Z,0.93
2022-09-03T09:05:57.237Z,0.73
2022-09-03T09:08:27.952Z,0.80
2022-09-03T09:11:05.735Z,0.82
2022-09-03T09:14:03.934Z,0.82
2022-09-03T09:17:13.333Z,0.80
2022-09-03T09:20:00.304Z,1.10
2022-09-03T09:22:32.691Z,1.20
2022-09-03T09:25:04.562Z,1.05
2022-09-03T09:30:04.433Z,0.95
2022-09-03T09:32:39.268Z,0.75
2022-09-03T09:35:10.476Z,0.68
2022-09-03T09:37:50.921Z,0.93
2022-09-03T09:40:25.979Z,0.68
2022-09-03T09:43:23.040Z,0.80
2022-09-03T09:45:53.304Z,0.70
2022-09-03T09:48:34.668Z,0.77
2022-09-03T09:51:11.956Z,0.85
2022-09-03T09:53:40.238Z,0.80
2022-09-03T09:56:08.235Z,0.70
2022-09-03T09:58:35.518Z,0.80
2022-09-03T10:01:04.849Z,1.20
2022-09-03T10:03:35.733Z,0.75
2022-09-03T10:06:32.694Z,0.63
2022-09-03T10:09:17.421Z,1.13
2022-09-03T10:11:52.297Z,0.93
2022-09-03T10:14:35.584Z,0.57
2022-09-03T10:17:16.955Z,0.70
2022-09-03T10:20:32.189Z,0.70
2022-09-03T10:23:23.891Z,0.82
2022-09-03T10:26:16.875Z,0.70
2022-09-03T10:28:50.645Z,0.70
2022-09-03T10:31:56.963Z,1.23
2022-09-03T10:34:37.244Z,0.90
2022-09-03T10:37:30.038Z,0.70
2022-09-03T10:40:28.889Z,0.90
2022-09-03T10:43:16.949Z,0.93
2022-09-03T10:45:52.681Z,0.63
2022-09-03T10:48:40.209Z,0.60
2022-09-03T10:51:47.502Z,0.75
2022-09-03T10:54:34.336Z,1.00
2022-09-03T10:57:42.273Z,0.90
2022-09-03T11:00:12.737Z,0.63
2022-09-03T11:02:58.909Z,0.82
2022-09-03T11:05:38.666Z,0.90
2022-09-03T11:08:06.120Z,0.88
2022-09-03T11:10:35.256Z,0.80
2022-09-03T11:13:09.096Z,0.93
2022-09-03T11:15:41.681Z,0.85
2022-09-03T11:18:23.960Z,0.70
2022-09-03T11:20:54.904Z,0.85
2022-09-03T11:23:25.048Z,0.90
2022-09-03T11:25:56.727Z,0.65
2022-09-03T11:28:52.565Z,0.50
2022-09-03T11:31:32.213Z,0.73
2022-09-03T11:34:14.095Z,1.15
2022-09-03T11:36:50.494Z,0.98
2022-09-03T11:39:26.629Z,1.23
2022-09-03T11:42:07.085Z,0.75
2022-09-03T11:44:47.726Z,0.80
2022-09-03T11:47:39.714Z,1.08
2022-09-03T11:50:21.174Z,0.63
2022-09-03T11:52:53.322Z,0.75
2022-09-03T11:55:38.225Z,0.93
2022-09-03T11:58:18.696Z,0.70
2022-09-03T12:00:46.152Z,0.95
2022-09-03T12:03:18.824Z,0.90
2022-09-03T12:05:53.062Z,0.88
2022-09-03T12:08:36.345Z,0.70
2022-09-03T12:11:33.782Z,0.98
2022-09-03T12:14:18.857Z,1.02
2022-09-03T12:16:45.553Z,0.77
2022-09-03T12:19:47.914Z,0.90
2022-09-03T12:22:16.794Z,1.00
2022-09-03T12:24:48.192Z,0.95
2022-09-03T12:27:26.243Z,0.70
2022-09-03T12:30:00.817Z,0.88
2022-09-03T12:32:37.147Z,0.65
2022-09-03T12:38:23.667Z,0.98
2022-09-03T12:43:49.809Z,1.10
2022-09-03T12:46:17.846Z,0.77
2022-09-03T12:51:52.448Z,1.00
2022-09-03T12:54:21.416Z,1.30
2022-09-03T12:56:58.357Z,1.27
2022-09-03T12:59:31.883Z,1.40
2022-09-03T13:02:05.829Z,0.60
2022-09-03T13:04:35.656Z,1.05
2022-09-03T13:07:13.158Z,0.90
2022-09-03T13:09:42.236Z,0.73
2022-09-03T13:12:28.605Z,0.80
2022-09-03T13:14:57.589Z,0.80
2022-09-03T13:17:33.063Z,1.00
2022-09-03T13:20:08.717Z,0.98
2022-09-03T13:23:18.520Z,1.00
2022-09-03T13:25:52.658Z,1.00
2022-09-03T13:28:47.240Z,1.10
2022-09-03T13:31:35.365Z,1.10
2022-09-03T13:34:22.168Z,0.90
2022-09-03T13:36:56.520Z,1.08
2022-09-03T13:39:35.508Z,1.27
2022-09-03T13:42:37.567Z,1.15
2022-09-03T13:45:16.921Z,1.08
2022-09-03T13:48:07.015Z,0.88
2022-09-03T13:50:59.144Z,0.90
2022-09-03T13:53:32.909Z,0.88
2022-09-03T13:56:07.856Z,0.80
2022-09-03T13:58:43.270Z,0.90
2022-09-03T14:01:20.622Z,0.75
2022-09-03T14:03:55.204Z,1.10
2022-09-03T14:06:33.841Z,1.08
2022-09-03T14:09:06.692Z,1.20
2022-09-03T14:11:56.973Z,0.88
2022-09-03T14:14:41.419Z,1.30
2022-09-03T14:17:36.865Z,1.23
2022-09-03T14:20:11.862Z,1.13
2022-09-03T14:22:53.588Z,1.35
2022-09-03T14:25:26.573Z,1.20
2022-09-03T14:27:55.845Z,1.30
2022-09-03T14:30:35.487Z,1.00
2022-09-03T14:33:39.005Z,1.05
2022-09-03T14:36:33.800Z,1.30
2022-09-03T14:39:31.614Z,1.00
2022-09-03T14:42:16.009Z,1.25
2022-09-03T14:44:56.354Z,1.15
2022-09-03T14:48:20.395Z,0.90
2022-09-03T14:51:03.690Z,0.90
2022-09-03T14:53:51.018Z,1.02
2022-09-03T14:56:39.458Z,1.10
2022-09-03T14:59:31.150Z,1.10
2022-09-03T15:02:28.440Z,1.30
2022-09-03T15:05:19.114Z,0.80
2022-09-03T15:07:54.549Z,1.20
2022-09-03T15:10:56.555Z,1.10
2022-09-03T15:13:34.665Z,1.08
2022-09-03T15:16:01.736Z,1.23
2022-09-03T15:18:31.542Z,1.40
2022-09-03T15:21:12.737Z,1.30
2022-09-03T15:24:07.157Z,1.20
2022-09-03T15:26:56.970Z,1.20
2022-09-03T15:29:58.522Z,0.90
2022-09-03T15:32:32.842Z,1.00
2022-09-03T15:35:09.606Z,1.10
2022-09-03T15:37:52.859Z,1.25
2022-09-03T15:40:33.188Z,1.70
2022-09-03T15:43:22.933Z,1.35
2022-09-03T15:45:57.435Z,1.63
2022-09-03T15:48:50.798Z,1.60
2022-09-03T15:51:25.509Z,1.45
2022-09-03T15:53:59.950Z,1.50
2022-09-03T15:56:47.247Z,1.50
2022-09-03T15:59:24.775Z,1.50
2022-09-03T16:02:03.874Z,1.40
2022-09-03T16:04:53.377Z,1.58
2022-09-03T16:07:38.336Z,1.52
2022-09-03T16:10:24.301Z,1.77
2022-09-03T16:13:31.684Z,2.00
2022-09-03T16:16:05.276Z,1.58
2022-09-03T16:18:41.364Z,1.65
2022-09-03T16:21:22.816Z,1.80
2022-09-03T16:23:54.850Z,2.08
2022-09-03T16:29:08.808Z,1.63
2022-09-03T16:31:39.998Z,1.83
2022-09-03T16:34:41.638Z,1.90
2022-09-03T16:37:14.385Z,1.87
2022-09-03T16:39:53.095Z,1.98
2022-09-03T16:42:19.888Z,2.08
2022-09-03T16:45:56.219Z,2.38
2022-09-03T16:48:58.143Z,2.45
2022-09-03T16:51:44.834Z,2.60
2022-09-03T16:54:20.506Z,2.30
2022-09-03T16:57:08.039Z,2.67
2022-09-03T17:00:08.276Z,2.95
2022-09-03T17:03:26.410Z,3.10
2022-09-03T17:06:42.718Z,2.50
2022-09-03T17:09:21.689Z,2.42
2022-09-03T17:12:05.968Z,3.10
2022-09-03T17:15:00.678Z,2.97
2022-09-03T17:17:36.168Z,2.97
2022-09-03T17:20:16.887Z,2.38
2022-09-03T17:22:53.069Z,2.60
2022-09-03T17:25:54.593Z,2.42
2022-09-03T17:28:35.943Z,2.33
2022-09-03T17:31:17.995Z,2.97
2022-09-03T17:34:19.394Z,2.78
2022-09-03T17:37:05.858Z,2.08
2022-09-03T17:39:51.826Z,2.70
2022-09-03T17:42:27.821Z,3.55
2022-09-03T17:45:03.651Z,3.10
2022-09-03T17:48:18.706Z,3.13
2022-09-03T17:50:55.852Z,3.55
2022-09-03T17:53:30.819Z,2.95
2022-09-03T17:56:11.806Z,2.80
2022-09-03T17:59:09.016Z,2.95
2022-09-03T18:01:38.935Z,2.47
2022-09-03T18:04:27.262Z,2.67
2022-09-03T18:07:01.463Z,3.17
2022-09-03T18:09:40.661Z,3.35
2022-09-03T18:12:36.883Z,3.03
2022-09-03T18:15:14.497Z,3.33
2022-09-03T18:18:02.870Z,3.90
2022-09-03T18:21:20.758Z,3.78
2022-09-03T18:24:09.445Z,4.30
2022-09-03T18:27:01.740Z,3.40
2022-09-03T18:32:39.869Z,3.20
2022-09-03T18:35:27.449Z,3.60
2022-09-03T18:38:12.622Z,3.72
2022-09-03T18:41:25.182Z,3.60
2022-09-03T18:44:19.541Z,3.67
2022-09-03T18:50:48.176Z,3.97
2022-09-03T18:53:52.663Z,3.72
2022-09-03T18:56:53.975Z,4.22
2022-09-03T18:59:48.537Z,4.10
2022-09-03T19:03:26.330Z,4.13
2022-09-03T19:06:35.471Z,4.47
2022-09-03T19:09:27.806Z,4.40
2022-09-03T19:15:20.579Z,4.90
2022-09-03T19:18:05.758Z,4.75
2022-09-03T19:20:54.456Z,4.68
2022-09-03T19:23:39.702Z,4.80
2022-09-03T19:26:49.837Z,4.88
2022-09-03T19:29:57.373Z,4.40
2022-09-03T19:32:53.284Z,4.68
2022-09-03T19:35:49.023Z,5.18
2022-09-03T19:39:10.581Z,5.00
2022-09-03T19:42:05.332Z,4.53
2022-09-03T19:45:15.670Z,4.65
2022-09-03T19:48:00.896Z,5.38
2022-09-03T19:50:52.712Z,5.35
2022-09-03T19:53:38.611Z,5.15
2022-09-03T19:56:37.396Z,5.35
2022-09-03T19:59:29.770Z,5.38
2022-09-03T20:05:06.611Z,5.22
2022-09-03T20:07:53.736Z,5.75
2022-09-03T20:10:24.241Z,5.63
2022-09-03T20:13:04.392Z,6.13
2022-09-03T20:16:02.189Z,6.38
2022-09-03T20:18:56.387Z,6.72
2022-09-03T20:21:34.155Z,6.43
2022-09-03T20:24:19.748Z,6.20
2022-09-03T20:26:52.393Z,6.30
2022-09-03T20:29:27.369Z,6.43
2022-09-03T20:32:39.730Z,6.45
2022-09-03T20:35:18.587Z,6.40
2022-09-03T20:38:09.261Z,6.00
2022-09-03T20:40:50.932Z,6.30
2022-09-03T20:43:49.638Z,6.35
2022-09-03T20:46:31.612Z,6.70
2022-09-03T20:49:38.636Z,6.22
2022-09-03T20:52:12.272Z,6.82
2022-09-03T20:55:05.857Z,7.43
2022-09-03T20:57:59.609Z,6.22
2022-09-03T21:00:33.472Z,7.00
2022-09-03T21:03:14.298Z,6.30
2022-09-03T21:05:41.051Z,6.22
2022-09-03T21:08:49.564Z,6.65
2022-09-03T21:11:29.950Z,6.38
2022-09-03T21:14:28.833Z,6.30
2022-09-03T21:17:04.997Z,6.03
2022-09-03T21:19:34.784Z,6.05
2022-09-03T21:22:09.502Z,5.80
2022-09-03T21:24:53.122Z,5.78
2022-09-03T21:27:24.314Z,5.60
2022-09-03T21:30:02.643Z,5.88
2022-09-03T21:32:45.037Z,5.10
2022-09-03T21:35:38.810Z,5.00
2022-09-03T21:38:08.352Z,5.38
2022-09-03T21:40:43.596Z,4.85
2022-09-03T21:43:22.358Z,4.63
2022-09-03T21:46:15.701Z,5.30
2022-09-03T21:48:51.265Z,5.55
2022-09-03T21:51:31.548Z,5.45
2022-09-03T21:54:06.535Z,5.60
2022-09-03T21:56:51.821Z,4.85
2022-09-03T21:59:27.694Z,5.20
2022-09-03T22:02:11.642Z,4.10
2022-09-03T22:04:38.493Z,4.90
2022-09-03T22:07:36.430Z,3.92
2022-09-03T22:10:22.009Z,3.95
2022-09-03T22:13:22.002Z,4.85
2022-09-03T22:15:51.087Z,4.55
2022-09-03T22:18:37.962Z,4.10
2022-09-03T22:21:24.868Z,4.90
2022-09-03T22:23:57.401Z,3.88
2022-09-03T22:26:42.924Z,3.50
2022-09-03T22:29:19.785Z,3.60
2022-09-03T22:31:50.800Z,3.35
2022-09-03T22:34:50.932Z,3.13
2022-09-03T22:37:26.031Z,2.90
2022-09-03T22:40:00.918Z,2.80
2022-09-03T22:42:54.557Z,3.33
2022-09-03T22:45:34.446Z,3.22
2022-09-03T22:48:30.537Z,2.88
2022-09-03T22:51:01.922Z,2.63
2022-09-03T22:54:06.843Z,2.78
2022-09-03T22:56:40.604Z,2.60
2022-09-03T22:59:16.391Z,2.83
2022-09-03T23:01:48.670Z,2.53
2022-09-03T23:04:55.418Z,3.40
2022-09-03T23:07:35.007Z,2.97
2022-09-03T23:10:29.183Z,3.08
2022-09-03T23:13:10.960Z,2.90
2022-09-03T23:15:41.641Z,2.78
2022-09-03T23:18:15.451Z,2.92
2022-09-03T23:20:47.221Z,3.05
2022-09-03T23:23:31.144Z,3.50
2022-09-03T23:26:16.290Z,2.80
2022-09-03T23:28:49.492Z,2.70
2022-09-03T23:31:19.149Z,2.67
2022-09-03T23:33:46.498Z,2.42
2022-09-03T23:37:15.968Z,2.42
2022-09-03T23:40:03.818Z,2.80
2022-09-03T23:42:52.483Z,2.80
2022-09-03T23:45:37.676Z,2.40
2022-09-03T23:48:19.400Z,2.72
2022-09-03T23:51:03.157Z,2.35
2022-09-03T23:53:57.338Z,2.50
2022-09-03T23:56:48.704Z,2.70
2022-09-03T23:59:18.453Z,2.73
